sensor_id;sensor_type;location;lat;lon;timestamp;pressure;altitude;pressure_sealevel;temperature;humidity
75923;BME280;64602;47.542;19.090;2024-02-14T00:03:37;100806.63;;;4.76;67.70
75923;BME280;64602;47.542;19.090;2024-02-14T00:08:40;100796.94;;;4.75;67.70
75923;BME280;64602;47.542;19.090;2024-02-14T00:13:42;100786.75;;;4.63;67.62
75923;BME280;64602;47.542;19.090;2024-02-14T00:18:44;100795.06;;;4.68;67.79
75923;BME280;64602;47.542;19.090;2024-02-14T00:23:47;100801.06;;;4.64;67.96
75923;BME280;64602;47.542;19.090;2024-02-14T00:28:49;100807.00;;;4.53;67.99
75923;BME280;64602;47.542;19.090;2024-02-14T00:33:51;100806.37;;;4.50;68.03
75923;BME280;64602;47.542;19.090;2024-02-14T00:38:54;100813.16;;;4.46;68.20
75923;BME280;64602;47.542;19.090;2024-02-14T00:43:56;100829.09;;;4.48;68.26
75923;BME280;64602;47.542;19.090;2024-02-14T00:48:58;100827.47;;;4.47;68.55
75923;BME280;64602;47.542;19.090;2024-02-14T00:54:01;100842.31;;;4.43;68.57
75923;BME280;64602;47.542;19.090;2024-02-14T00:59:03;100827.63;;;4.39;68.53
75923;BME280;64602;47.542;19.090;2024-02-14T01:04:06;100838.97;;;4.34;68.50
75923;BME280;64602;47.542;19.090;2024-02-14T01:09:09;100844.94;;;4.29;68.44
75923;BME280;64602;47.542;19.090;2024-02-14T01:14:11;100844.09;;;4.29;68.16
75923;BME280;64602;47.542;19.090;2024-02-14T01:19:16;100837.09;;;4.28;68.36
75923;BME280;64602;47.542;19.090;2024-02-14T01:24:21;100837.91;;;4.28;68.54
75923;BME280;64602;47.542;19.090;2024-02-14T01:29:24;100824.44;;;4.15;68.64
75923;BME280;64602;47.542;19.090;2024-02-14T01:34:26;100832.03;;;4.12;68.98
75923;BME280;64602;47.542;19.090;2024-02-14T01:39:30;100826.84;;;4.10;69.00
75923;BME280;64602;47.542;19.090;2024-02-14T01:44:33;100827.03;;;4.02;69.72
75923;BME280;64602;47.542;19.090;2024-02-14T01:49:36;100835.91;;;4.02;70.42
75923;BME280;64602;47.542;19.090;2024-02-14T01:54:39;100847.88;;;4.00;70.63
75923;BME280;64602;47.542;19.090;2024-02-14T01:59:42;100822.59;;;3.88;70.78
75923;BME280;64602;47.542;19.090;2024-02-14T02:04:45;100847.22;;;3.91;71.13
75923;BME280;64602;47.542;19.090;2024-02-14T02:09:47;100837.41;;;3.77;71.11
75923;BME280;64602;47.542;19.090;2024-02-14T02:14:49;100840.69;;;3.72;70.63
75923;BME280;64602;47.542;19.090;2024-02-14T02:19:55;100850.16;;;3.68;70.45
75923;BME280;64602;47.542;19.090;2024-02-14T02:24:57;100857.22;;;3.76;71.14
75923;BME280;64602;47.542;19.090;2024-02-14T02:30:01;100843.25;;;3.59;71.25
75923;BME280;64602;47.542;19.090;2024-02-14T02:35:03;100851.53;;;3.57;71.64
75923;BME280;64602;47.542;19.090;2024-02-14T02:40:07;100870.94;;;3.59;71.60
75923;BME280;64602;47.542;19.090;2024-02-14T02:45:11;100850.97;;;3.40;72.52
75923;BME280;64602;47.542;19.090;2024-02-14T02:50:13;100870.19;;;3.44;72.91
75923;BME280;64602;47.542;19.090;2024-02-14T02:55:16;100863.69;;;3.32;73.61
75923;BME280;64602;47.542;19.090;2024-02-14T03:00:20;100871.63;;;3.18;73.61
75923;BME280;64602;47.542;19.090;2024-02-14T03:05:23;100893.91;;;3.19;73.86
75923;BME280;64602;47.542;19.090;2024-02-14T03:10:26;100879.00;;;2.95;74.21
75923;BME280;64602;47.542;19.090;2024-02-14T03:15:29;100888.16;;;2.86;74.23
75923;BME280;64602;47.542;19.090;2024-02-14T03:20:31;100912.22;;;2.79;75.02
75923;BME280;64602;47.542;19.090;2024-02-14T03:25:33;100901.72;;;2.63;75.66
75923;BME280;64602;47.542;19.090;2024-02-14T03:30:38;100922.50;;;2.75;75.50
75923;BME280;64602;47.542;19.090;2024-02-14T03:35:44;100931.75;;;2.73;76.27
75923;BME280;64602;47.542;19.090;2024-02-14T03:40:47;100922.88;;;2.72;75.45
75923;BME280;64602;47.542;19.090;2024-02-14T03:45:49;100923.69;;;2.73;75.94
75923;BME280;64602;47.542;19.090;2024-02-14T03:50:52;100936.81;;;2.83;75.59
75923;BME280;64602;47.542;19.090;2024-02-14T03:55:54;100937.63;;;2.83;75.88
75923;BME280;64602;47.542;19.090;2024-02-14T04:00:56;100950.66;;;2.86;76.55
75923;BME280;64602;47.542;19.090;2024-02-14T04:05:58;100964.44;;;2.83;76.64
75923;BME280;64602;47.542;19.090;2024-02-14T04:11:00;100964.28;;;2.70;77.21
75923;BME280;64602;47.542;19.090;2024-02-14T04:16:03;100970.72;;;2.75;77.75
75923;BME280;64602;47.542;19.090;2024-02-14T04:21:07;100975.44;;;2.73;78.22
75923;BME280;64602;47.542;19.090;2024-02-14T04:26:09;100982.37;;;2.68;78.42
75923;BME280;64602;47.542;19.090;2024-02-14T04:31:12;100988.69;;;2.60;78.61
75923;BME280;64602;47.542;19.090;2024-02-14T04:36:14;100995.31;;;2.64;79.01
75923;BME280;64602;47.542;19.090;2024-02-14T04:41:17;101000.22;;;2.61;79.44
75923;BME280;64602;47.542;19.090;2024-02-14T04:46:19;100989.94;;;2.49;79.77
75923;BME280;64602;47.542;19.090;2024-02-14T04:51:21;100987.16;;;2.43;79.73
75923;BME280;64602;47.542;19.090;2024-02-14T04:56:25;101015.81;;;2.42;80.39
75923;BME280;64602;47.542;19.090;2024-02-14T05:01:28;101001.84;;;2.32;80.26
75923;BME280;64602;47.542;19.090;2024-02-14T05:06:30;101011.00;;;2.38;80.78
75923;BME280;64602;47.542;19.090;2024-02-14T05:11:32;101024.66;;;2.28;81.38
75923;BME280;64602;47.542;19.090;2024-02-14T05:16:34;101011.34;;;2.20;81.76
75923;BME280;64602;47.542;19.090;2024-02-14T05:21:37;101019.13;;;2.29;82.00
75923;BME280;64602;47.542;19.090;2024-02-14T05:26:40;101027.81;;;2.31;82.00
75923;BME280;64602;47.542;19.090;2024-02-14T05:31:43;101024.09;;;2.18;81.75
75923;BME280;64602;47.542;19.090;2024-02-14T05:36:46;101025.00;;;2.10;82.33
75923;BME280;64602;47.542;19.090;2024-02-14T05:41:48;101038.00;;;2.13;82.54
75923;BME280;64602;47.542;19.090;2024-02-14T05:46:51;101043.69;;;1.95;82.81
75923;BME280;64602;47.542;19.090;2024-02-14T05:51:53;101052.72;;;1.94;83.02
75923;BME280;64602;47.542;19.090;2024-02-14T05:56:56;101066.06;;;2.02;83.17
75923;BME280;64602;47.542;19.090;2024-02-14T06:01:59;101070.91;;;1.99;83.47
75923;BME280;64602;47.542;19.090;2024-02-14T06:07:04;101063.13;;;1.89;83.44
75923;BME280;64602;47.542;19.090;2024-02-14T06:12:08;101063.03;;;1.82;83.67
75923;BME280;64602;47.542;19.090;2024-02-14T06:17:11;101088.84;;;1.98;83.87
75923;BME280;64602;47.542;19.090;2024-02-14T06:22:13;101095.31;;;2.04;83.76
75923;BME280;64602;47.542;19.090;2024-02-14T06:27:16;101090.19;;;1.94;83.60
75923;BME280;64602;47.542;19.090;2024-02-14T06:32:18;101077.28;;;1.98;83.49
75923;BME280;64602;47.542;19.090;2024-02-14T06:37:20;101086.28;;;2.05;83.51
75923;BME280;64602;47.542;19.090;2024-02-14T06:42:22;101085.88;;;2.16;83.24
75923;BME280;64602;47.542;19.090;2024-02-14T06:47:25;101102.53;;;2.26;82.85
75923;BME280;64602;47.542;19.090;2024-02-14T06:52:32;101096.25;;;2.34;82.27
75923;BME280;64602;47.542;19.090;2024-02-14T06:57:34;101099.25;;;2.54;81.54
75923;BME280;64602;47.542;19.090;2024-02-14T07:02:36;101114.81;;;2.73;81.28
75923;BME280;64602;47.542;19.090;2024-02-14T07:07:38;101107.44;;;2.90;80.78
75923;BME280;64602;47.542;19.090;2024-02-14T07:12:40;101121.22;;;3.02;79.89
75923;BME280;64602;47.542;19.090;2024-02-14T07:17:43;101136.59;;;3.23;79.46
75923;BME280;64602;47.542;19.090;2024-02-14T07:22:45;101133.97;;;3.45;78.80
75923;BME280;64602;47.542;19.090;2024-02-14T07:27:49;101123.94;;;3.68;78.32
75923;BME280;64602;47.542;19.090;2024-02-14T07:32:51;101140.34;;;3.95;77.57
75923;BME280;64602;47.542;19.090;2024-02-14T07:37:54;101129.06;;;4.21;77.07
75923;BME280;64602;47.542;19.090;2024-02-14T07:42:57;101127.34;;;4.35;76.39
75923;BME280;64602;47.542;19.090;2024-02-14T07:47:59;101142.84;;;4.61;75.32
75923;BME280;64602;47.542;19.090;2024-02-14T07:53:01;101139.47;;;4.80;74.12
75923;BME280;64602;47.542;19.090;2024-02-14T07:58:04;101142.59;;;5.12;73.26
75923;BME280;64602;47.542;19.090;2024-02-14T08:03:06;101130.12;;;5.39;72.35
75923;BME280;64602;47.542;19.090;2024-02-14T08:08:08;101147.12;;;5.88;71.64
75923;BME280;64602;47.542;19.090;2024-02-14T08:13:10;101137.88;;;6.24;68.70
75923;BME280;64602;47.542;19.090;2024-02-14T08:18:17;101137.09;;;6.56;66.07
75923;BME280;64602;47.542;19.090;2024-02-14T08:23:19;101152.84;;;6.86;65.10
75923;BME280;64602;47.542;19.090;2024-02-14T08:28:24;101155.13;;;7.02;63.33
75923;BME280;64602;47.542;19.090;2024-02-14T08:33:26;101148.06;;;7.15;62.97
75923;BME280;64602;47.542;19.090;2024-02-14T08:38:28;101147.12;;;7.47;62.34
75923;BME280;64602;47.542;19.090;2024-02-14T08:43:31;101139.81;;;7.61;59.09
75923;BME280;64602;47.542;19.090;2024-02-14T08:48:33;101149.06;;;7.85;59.04
75923;BME280;64602;47.542;19.090;2024-02-14T08:53:37;101146.31;;;7.99;57.38
75923;BME280;64602;47.542;19.090;2024-02-14T08:58:39;101143.47;;;8.19;56.39
75923;BME280;64602;47.542;19.090;2024-02-14T09:03:44;101144.81;;;8.34;54.93
75923;BME280;64602;47.542;19.090;2024-02-14T09:08:52;101146.88;;;8.46;55.66
75923;BME280;64602;47.542;19.090;2024-02-14T09:13:55;101159.25;;;8.85;56.53
75923;BME280;64602;47.542;19.090;2024-02-14T09:19:01;101145.09;;;9.08;54.60
75923;BME280;64602;47.542;19.090;2024-02-14T09:24:03;101155.19;;;9.38;53.82
75923;BME280;64602;47.542;19.090;2024-02-14T09:29:06;101147.81;;;9.45;53.31
75923;BME280;64602;47.542;19.090;2024-02-14T09:34:09;101152.94;;;9.72;51.86
75923;BME280;64602;47.542;19.090;2024-02-14T09:39:13;101144.12;;;9.76;47.03
75923;BME280;64602;47.542;19.090;2024-02-14T09:44:21;101134.06;;;9.95;48.05
75923;BME280;64602;47.542;19.090;2024-02-14T09:49:24;101144.25;;;10.12;48.06
75923;BME280;64602;47.542;19.090;2024-02-14T09:54:27;101145.87;;;10.31;46.78
75923;BME280;64602;47.542;19.090;2024-02-14T09:59:30;101140.16;;;10.63;47.62
75923;BME280;64602;47.542;19.090;2024-02-14T10:04:33;101126.59;;;10.75;45.88
75923;BME280;64602;47.542;19.090;2024-02-14T10:09:42;101123.41;;;10.89;45.56
75923;BME280;64602;47.542;19.090;2024-02-14T10:14:44;101135.97;;;11.14;45.93
75923;BME280;64602;47.542;19.090;2024-02-14T10:19:58;101129.56;;;11.32;44.50
75923;BME280;64602;47.542;19.090;2024-02-14T10:25:00;101138.50;;;15.22;37.53
75923;BME280;64602;47.542;19.090;2024-02-14T10:30:05;101136.75;;;16.36;33.82
75923;BME280;64602;47.542;19.090;2024-02-14T10:35:07;101131.44;;;19.34;30.86
75923;BME280;64602;47.542;19.090;2024-02-14T10:40:11;101153.88;;;25.44;24.45
75923;BME280;64602;47.542;19.090;2024-02-14T10:45:13;101139.56;;;26.56;20.74
75923;BME280;64602;47.542;19.090;2024-02-14T10:50:16;101135.91;;;27.83;21.04
75923;BME280;64602;47.542;19.090;2024-02-14T10:55:19;101140.81;;;29.63;19.15
75923;BME280;64602;47.542;19.090;2024-02-14T11:00:22;101146.00;;;33.35;17.02
75923;BME280;64602;47.542;19.090;2024-02-14T11:05:26;101124.31;;;33.98;15.62
75923;BME280;64602;47.542;19.090;2024-02-14T11:10:28;101121.47;;;30.67;15.66
75923;BME280;64602;47.542;19.090;2024-02-14T11:15:35;101109.03;;;34.02;14.28
75923;BME280;64602;47.542;19.090;2024-02-14T11:20:37;101118.84;;;34.26;14.19
75923;BME280;64602;47.542;19.090;2024-02-14T11:25:40;101110.38;;;36.06;13.44
75923;BME280;64602;47.542;19.090;2024-02-14T11:30:43;101111.28;;;37.25;12.39
75923;BME280;64602;47.542;19.090;2024-02-14T11:35:47;101114.69;;;37.51;12.78
75923;BME280;64602;47.542;19.090;2024-02-14T11:40:54;101110.94;;;37.61;12.38
75923;BME280;64602;47.542;19.090;2024-02-14T11:45:59;101095.44;;;37.73;12.33
75923;BME280;64602;47.542;19.090;2024-02-14T11:51:01;101095.16;;;37.60;10.90
75923;BME280;64602;47.542;19.090;2024-02-14T11:56:05;101084.94;;;37.70;11.85
75923;BME280;64602;47.542;19.090;2024-02-14T12:01:07;101077.09;;;35.15;13.09
75923;BME280;64602;47.542;19.090;2024-02-14T12:06:11;101053.91;;;29.20;17.27
75923;BME280;64602;47.542;19.090;2024-02-14T12:11:13;101056.94;;;32.23;14.65
75923;BME280;64602;47.542;19.090;2024-02-14T12:16:16;101063.28;;;33.43;13.74
75923;BME280;64602;47.542;19.090;2024-02-14T12:21:18;101055.19;;;30.13;15.76
75923;BME280;64602;47.542;19.090;2024-02-14T12:26:20;101045.50;;;26.61;18.57
75923;BME280;64602;47.542;19.090;2024-02-14T12:31:23;101032.09;;;22.81;21.89
75923;BME280;64602;47.542;19.090;2024-02-14T12:36:26;101014.34;;;19.66;25.57
75923;BME280;64602;47.542;19.090;2024-02-14T12:41:30;101026.84;;;18.62;27.39
75923;BME280;64602;47.542;19.090;2024-02-14T12:46:33;101007.72;;;16.38;29.99
75923;BME280;64602;47.542;19.090;2024-02-14T12:51:35;101015.78;;;15.30;31.81
75923;BME280;64602;47.542;19.090;2024-02-14T12:56:40;101003.78;;;14.41;33.70
75923;BME280;64602;47.542;19.090;2024-02-14T13:01:42;100995.38;;;13.78;35.46
75923;BME280;64602;47.542;19.090;2024-02-14T13:06:45;100995.66;;;13.28;36.54
75923;BME280;64602;47.542;19.090;2024-02-14T13:11:49;100999.44;;;13.04;37.78
75923;BME280;64602;47.542;19.090;2024-02-14T13:16:51;101000.59;;;12.87;38.32
75923;BME280;64602;47.542;19.090;2024-02-14T13:21:54;100992.50;;;12.53;39.07
75923;BME280;64602;47.542;19.090;2024-02-14T13:26:56;100995.25;;;12.36;39.60
75923;BME280;64602;47.542;19.090;2024-02-14T13:32:01;100990.53;;;11.97;40.86
75923;BME280;64602;47.542;19.090;2024-02-14T13:37:04;101002.00;;;11.71;41.74
75923;BME280;64602;47.542;19.090;2024-02-14T13:42:07;100999.75;;;11.51;43.39
75923;BME280;64602;47.542;19.090;2024-02-14T13:47:10;101003.69;;;11.43;43.71
75923;BME280;64602;47.542;19.090;2024-02-14T13:52:13;101009.16;;;11.31;44.46
75923;BME280;64602;47.542;19.090;2024-02-14T13:57:18;101014.72;;;11.25;45.77
75923;BME280;64602;47.542;19.090;2024-02-14T14:02:21;101012.28;;;11.11;46.21
75923;BME280;64602;47.542;19.090;2024-02-14T14:07:24;100996.84;;;11.00;46.91
75923;BME280;64602;47.542;19.090;2024-02-14T14:12:26;101008.75;;;10.99;47.02
75923;BME280;64602;47.542;19.090;2024-02-14T14:17:29;101018.22;;;10.97;47.33
75923;BME280;64602;47.542;19.090;2024-02-14T14:22:31;100991.34;;;10.83;47.43
75923;BME280;64602;47.542;19.090;2024-02-14T14:27:34;101015.88;;;10.88;48.64
75923;BME280;64602;47.542;19.090;2024-02-14T14:32:36;101004.31;;;10.69;48.18
75923;BME280;64602;47.542;19.090;2024-02-14T14:37:39;101007.31;;;10.68;48.15
75923;BME280;64602;47.542;19.090;2024-02-14T14:42:41;100991.00;;;10.56;48.21
75923;BME280;64602;47.542;19.090;2024-02-14T14:47:43;100999.87;;;10.52;48.70
75923;BME280;64602;47.542;19.090;2024-02-14T14:52:45;100992.53;;;10.52;49.28
75923;BME280;64602;47.542;19.090;2024-02-14T14:57:48;100993.03;;;10.49;49.13
75923;BME280;64602;47.542;19.090;2024-02-14T15:02:50;101016.03;;;10.46;48.74
75923;BME280;64602;47.542;19.090;2024-02-14T15:07:53;101006.22;;;10.81;48.66
75923;BME280;64602;47.542;19.090;2024-02-14T15:12:55;101011.41;;;14.02;42.34
75923;BME280;64602;47.542;19.090;2024-02-14T15:17:57;101023.47;;;18.70;33.25
75923;BME280;64602;47.542;19.090;2024-02-14T15:23:00;101031.62;;;18.81;32.57
75923;BME280;64602;47.542;19.090;2024-02-14T15:28:07;101037.72;;;18.77;33.28
75923;BME280;64602;47.542;19.090;2024-02-14T15:33:14;101026.41;;;15.22;37.91
75923;BME280;64602;47.542;19.090;2024-02-14T15:38:26;101021.59;;;13.30;41.89
75923;BME280;64602;47.542;19.090;2024-02-14T15:43:28;101029.81;;;12.18;44.53
75923;BME280;64602;47.542;19.090;2024-02-14T15:48:30;101032.75;;;11.43;46.63
75923;BME280;64602;47.542;19.090;2024-02-14T15:53:34;101028.84;;;10.98;48.14
75923;BME280;64602;47.542;19.090;2024-02-14T15:58:36;101027.81;;;10.64;49.57
75923;BME280;64602;47.542;19.090;2024-02-14T16:03:38;101020.69;;;10.27;50.33
75923;BME280;64602;47.542;19.090;2024-02-14T16:08:40;101008.31;;;10.20;51.17
75923;BME280;64602;47.542;19.090;2024-02-14T16:13:42;101020.22;;;10.19;51.94
75923;BME280;64602;47.542;19.090;2024-02-14T16:18:44;101021.13;;;10.01;52.46
75923;BME280;64602;47.542;19.090;2024-02-14T16:23:46;101035.34;;;9.84;54.81
75923;BME280;64602;47.542;19.090;2024-02-14T16:28:48;101029.63;;;10.16;54.69
75923;BME280;64602;47.542;19.090;2024-02-14T16:33:51;101034.31;;;9.97;54.49
75923;BME280;64602;47.542;19.090;2024-02-14T16:38:53;101053.72;;;9.82;54.54
75923;BME280;64602;47.542;19.090;2024-02-14T16:43:56;101053.25;;;9.74;55.53
75923;BME280;64602;47.542;19.090;2024-02-14T16:48:59;101041.81;;;9.53;55.92
75923;BME280;64602;47.542;19.090;2024-02-14T16:54:02;101059.84;;;9.48;56.52
75923;BME280;64602;47.542;19.090;2024-02-14T16:59:05;101040.06;;;9.29;56.70
75923;BME280;64602;47.542;19.090;2024-02-14T17:04:07;101061.53;;;9.30;57.25
75923;BME280;64602;47.542;19.090;2024-02-14T17:09:09;101053.91;;;9.20;57.39
75923;BME280;64602;47.542;19.090;2024-02-14T17:14:11;101068.28;;;9.21;57.47
75923;BME280;64602;47.542;19.090;2024-02-14T17:19:14;101078.97;;;9.16;57.92
75923;BME280;64602;47.542;19.090;2024-02-14T17:24:17;101080.47;;;9.12;57.81
75923;BME280;64602;47.542;19.090;2024-02-14T17:29:20;101065.56;;;9.03;58.15
75923;BME280;64602;47.542;19.090;2024-02-14T17:34:22;101077.00;;;9.05;58.36
75923;BME280;64602;47.542;19.090;2024-02-14T17:39:27;101083.84;;;9.07;58.78
75923;BME280;64602;47.542;19.090;2024-02-14T17:44:30;101078.53;;;9.01;58.74
75923;BME280;64602;47.542;19.090;2024-02-14T17:49:32;101074.72;;;8.83;58.92
75923;BME280;64602;47.542;19.090;2024-02-14T17:54:34;101098.41;;;8.88;59.27
75923;BME280;64602;47.542;19.090;2024-02-14T17:59:38;101086.97;;;8.86;59.76
75923;BME280;64602;47.542;19.090;2024-02-14T18:04:40;101074.56;;;8.78;59.35
75923;BME280;64602;47.542;19.090;2024-02-14T18:09:43;101091.88;;;8.77;60.30
75923;BME280;64602;47.542;19.090;2024-02-14T18:14:45;101079.06;;;8.66;60.47
75923;BME280;64602;47.542;19.090;2024-02-14T18:19:48;101073.69;;;8.59;60.08
75923;BME280;64602;47.542;19.090;2024-02-14T18:24:50;101091.16;;;8.63;60.44
75923;BME280;64602;47.542;19.090;2024-02-14T18:29:53;101099.50;;;8.62;60.63
75923;BME280;64602;47.542;19.090;2024-02-14T18:34:55;101071.50;;;8.49;60.34
75923;BME280;64602;47.542;19.090;2024-02-14T18:39:58;101071.56;;;8.43;60.33
75923;BME280;64602;47.542;19.090;2024-02-14T18:45:00;101071.56;;;8.43;60.20
75923;BME280;64602;47.542;19.090;2024-02-14T18:50:03;101096.09;;;8.48;59.82
75923;BME280;64602;47.542;19.090;2024-02-14T18:55:06;101085.09;;;8.43;59.75
75923;BME280;64602;47.542;19.090;2024-02-14T19:00:08;101095.69;;;8.44;59.94
75923;BME280;64602;47.542;19.090;2024-02-14T19:05:13;101096.12;;;8.41;59.74
75923;BME280;64602;47.542;19.090;2024-02-14T19:10:16;101079.53;;;8.31;59.63
75923;BME280;64602;47.542;19.090;2024-02-14T19:15:18;101089.47;;;8.37;59.58
75923;BME280;64602;47.542;19.090;2024-02-14T19:20:22;101088.03;;;8.34;59.51
75923;BME280;64602;47.542;19.090;2024-02-14T19:25:28;101073.34;;;8.24;59.25
75923;BME280;64602;47.542;19.090;2024-02-14T19:30:30;101088.69;;;8.30;59.90
75923;BME280;64602;47.542;19.090;2024-02-14T19:35:32;101094.31;;;8.28;60.62
75923;BME280;64602;47.542;19.090;2024-02-14T19:40:40;101091.47;;;8.23;60.78
75923;BME280;64602;47.542;19.090;2024-02-14T19:45:42;101081.53;;;8.10;61.00
75923;BME280;64602;47.542;19.090;2024-02-14T19:50:44;101091.28;;;8.18;61.63
75923;BME280;64602;47.542;19.090;2024-02-14T19:55:47;101092.31;;;8.17;61.81
75923;BME280;64602;47.542;19.090;2024-02-14T20:00:50;101087.72;;;8.18;61.02
75923;BME280;64602;47.542;19.090;2024-02-14T20:05:52;101080.50;;;8.11;61.97
75923;BME280;64602;47.542;19.090;2024-02-14T20:10:54;101087.97;;;8.16;62.14
75923;BME280;64602;47.542;19.090;2024-02-14T20:15:59;101088.59;;;8.18;62.22
75923;BME280;64602;47.542;19.090;2024-02-14T20:21:01;101087.72;;;8.18;62.26
75923;BME280;64602;47.542;19.090;2024-02-14T20:26:04;101096.00;;;8.23;62.47
75923;BME280;64602;47.542;19.090;2024-02-14T20:31:06;101092.56;;;8.16;62.77
75923;BME280;64602;47.542;19.090;2024-02-14T20:36:09;101085.91;;;8.11;62.86
75923;BME280;64602;47.542;19.090;2024-02-14T20:41:13;101097.87;;;7.97;63.85
75923;BME280;64602;47.542;19.090;2024-02-14T20:46:15;101083.03;;;7.75;64.36
75923;BME280;64602;47.542;19.090;2024-02-14T20:51:20;101087.03;;;7.65;64.65
75923;BME280;64602;47.542;19.090;2024-02-14T20:56:22;101091.66;;;7.52;65.03
75923;BME280;64602;47.542;19.090;2024-02-14T21:01:25;101090.09;;;7.31;65.90
75923;BME280;64602;47.542;19.090;2024-02-14T21:06:27;101077.69;;;7.10;66.78
75923;BME280;64602;47.542;19.090;2024-02-14T21:11:29;101078.31;;;7.05;67.72
75923;BME280;64602;47.542;19.090;2024-02-14T21:16:32;101099.47;;;7.08;67.90
75923;BME280;64602;47.542;19.090;2024-02-14T21:21:35;101087.87;;;7.01;67.87
75923;BME280;64602;47.542;19.090;2024-02-14T21:26:37;101079.19;;;6.85;68.13
75923;BME280;64602;47.542;19.090;2024-02-14T21:31:40;101081.47;;;6.82;68.73
75923;BME280;64602;47.542;19.090;2024-02-14T21:36:44;101083.75;;;6.72;69.90
75923;BME280;64602;47.542;19.090;2024-02-14T21:41:46;101085.44;;;6.59;69.93
75923;BME280;64602;47.542;19.090;2024-02-14T21:46:48;101082.34;;;6.56;70.58
75923;BME280;64602;47.542;19.090;2024-02-14T21:51:50;101068.22;;;6.40;70.92
75923;BME280;64602;47.542;19.090;2024-02-14T21:56:54;101066.38;;;6.34;71.12
75923;BME280;64602;47.542;19.090;2024-02-14T22:01:56;101057.66;;;6.26;71.53
75923;BME280;64602;47.542;19.090;2024-02-14T22:07:00;101064.09;;;6.25;71.56
75923;BME280;64602;47.542;19.090;2024-02-14T22:12:04;101072.81;;;6.27;72.38
75923;BME280;64602;47.542;19.090;2024-02-14T22:17:09;101067.59;;;6.18;72.57
75923;BME280;64602;47.542;19.090;2024-02-14T22:22:13;101066.16;;;6.16;73.41
75923;BME280;64602;47.542;19.090;2024-02-14T22:27:20;101078.59;;;6.30;73.35
75923;BME280;64602;47.542;19.090;2024-02-14T22:32:23;101086.69;;;6.37;73.73
75923;BME280;64602;47.542;19.090;2024-02-14T22:37:25;101081.09;;;6.52;73.05
75923;BME280;64602;47.542;19.090;2024-02-14T22:42:27;101081.72;;;6.47;73.29
75923;BME280;64602;47.542;19.090;2024-02-14T22:47:30;101078.81;;;6.49;72.96
75923;BME280;64602;47.542;19.090;2024-02-14T22:52:32;101083.38;;;6.55;72.88
75923;BME280;64602;47.542;19.090;2024-02-14T22:57:34;101094.56;;;6.78;72.55
75923;BME280;64602;47.542;19.090;2024-02-14T23:02:37;101085.63;;;6.84;73.18
75923;BME280;64602;47.542;19.090;2024-02-14T23:07:40;101083.97;;;6.83;72.36
75923;BME280;64602;47.542;19.090;2024-02-14T23:12:45;101094.75;;;6.97;71.90
75923;BME280;64602;47.542;19.090;2024-02-14T23:17:49;101086.66;;;6.97;71.83
75923;BME280;64602;47.542;19.090;2024-02-14T23:22:52;101088.91;;;7.00;72.05
75923;BME280;64602;47.542;19.090;2024-02-14T23:27:54;101076.50;;;6.92;72.33
75923;BME280;64602;47.542;19.090;2024-02-14T23:32:57;101061.13;;;6.93;72.21
75923;BME280;64602;47.542;19.090;2024-02-14T23:38:00;101062.56;;;6.95;72.14
75923;BME280;64602;47.542;19.090;2024-02-14T23:43:02;101066.09;;;6.96;72.86
75923;BME280;64602;47.542;19.090;2024-02-14T23:48:05;101067.09;;;7.01;72.59
75923;BME280;64602;47.542;19.090;2024-02-14T23:53:08;101066.91;;;6.96;72.61
75923;BME280;64602;47.542;19.090;2024-02-14T23:58:10;101070.22;;;7.05;72.57
